KLM60H LPPR-EHAM
Flight info
| Callsign | KLM60H |
|---|---|
| Flight time | N/A |
| Altitude | 24000 |
| Route | TURON P600 ASDEB/N0452F380 DCT LOTEE DCT AZFIC DCT ERIGA DCT GODIX DCT PODEM UN873 BAZOS DCT BELDI DCT VEKIN DCT ADUTO N873 FERDI/N0386F240 Y18 DENUT |
| Aircraft | B737/M-SDE2E3FGHIRWXY/LB1 |
Departure
| Time | 2026-05-04 14:34 |
|---|---|
| Airport | Francisco de Sá Carneiro Airport (LPPR) |
Arrival
| Time | N/A |
|---|---|
| Airport | Amsterdam Airport Schiphol (EHAM) |
| Time | Latitude | Longitude | Altitude | Speed | Heading |
|---|---|---|---|---|---|
| 2026-05-04 14:10 | 41.23640 | -8.67239 | 235 ft | 0 kts | 78° |
| 2026-05-04 14:24 | 41.23638 | -8.67250 | 235 ft | 4 kts | 79° |
| 2026-05-04 14:25 | 41.23633 | -8.67285 | 237 ft | 4 kts | 80° |
| 2026-05-04 14:25 | 41.23627 | -8.67344 | 235 ft | 4 kts | 86° |
| 2026-05-04 14:25 | 41.23628 | -8.67389 | 233 ft | 4 kts | 105° |
| 2026-05-04 14:26 | 41.23635 | -8.67410 | 233 ft | 4 kts | 130° |
| 2026-05-04 14:26 | 41.23656 | -8.67431 | 231 ft | 4 kts | 160° |
| 2026-05-04 14:26 | 41.23682 | -8.67439 | 229 ft | 4 kts | 173° |
| 2026-05-04 14:26 | 41.23705 | -8.67443 | 229 ft | 1 kts | 169° |
| 2026-05-04 14:29 | 41.23662 | -8.67441 | 231 ft | 5 kts | 197° |
| 2026-05-04 14:30 | 41.23635 | -8.67473 | 229 ft | 6 kts | 240° |
| 2026-05-04 14:30 | 41.23623 | -8.67531 | 229 ft | 7 kts | 259° |
| 2026-05-04 14:30 | 41.23612 | -8.67610 | 228 ft | 0 kts | 258° |
| 2026-05-04 14:31 | 41.23611 | -8.67614 | 228 ft | 2 kts | 258° |
| 2026-05-04 14:32 | 41.23593 | -8.67739 | 228 ft | 9 kts | 258° |
| 2026-05-04 14:32 | 41.23610 | -8.67814 | 227 ft | 8 kts | 332° |
| 2026-05-04 14:32 | 41.23632 | -8.67820 | 226 ft | 0 kts | 348° |
| 2026-05-04 14:33 | 41.23662 | -8.67828 | 225 ft | 26 kts | 348° |
| 2026-05-04 14:34 | 41.24111 | -8.67944 | 209 ft | 103 kts | 350° |
| 2026-05-04 14:34 | 41.25029 | -8.68181 | 190 ft | 164 kts | 349° |
| 2026-05-04 14:34 | 41.26245 | -8.68487 | 624 ft | 186 kts | 349° |
| 2026-05-04 14:34 | 41.27511 | -8.68813 | 1600 ft | 179 kts | 346° |
| 2026-05-04 14:35 | 41.28722 | -8.69163 | 2733 ft | 182 kts | 347° |
| 2026-05-04 14:35 | 41.30071 | -8.69537 | 3325 ft | 216 kts | 348° |
| 2026-05-04 14:35 | 41.31666 | -8.69962 | 3679 ft | 255 kts | 348° |
| 2026-05-04 14:35 | 41.33414 | -8.70400 | 4306 ft | 262 kts | 349° |
| 2026-05-04 14:36 | 41.35229 | -8.70858 | 5247 ft | 267 kts | 348° |
| 2026-05-04 14:36 | 41.37062 | -8.71337 | 6257 ft | 270 kts | 348° |
| 2026-05-04 14:36 | 41.38918 | -8.71829 | 7204 ft | 274 kts | 348° |
| 2026-05-04 14:36 | 41.40810 | -8.72284 | 8126 ft | 279 kts | 356° |
| 2026-05-04 14:37 | 41.42754 | -8.72037 | 9035 ft | 282 kts | 9° |
| 2026-05-04 14:37 | 41.44698 | -8.71544 | 9899 ft | 287 kts | 11° |
| 2026-05-04 14:37 | 41.46687 | -8.71013 | 10546 ft | 301 kts | 11° |
| 2026-05-04 14:37 | 41.48838 | -8.70446 | 10782 ft | 327 kts | 11° |
| 2026-05-04 14:38 | 41.51115 | -8.69859 | 11385 ft | 338 kts | 10° |
| 2026-05-04 14:38 | 41.53446 | -8.69272 | 12201 ft | 341 kts | 10° |
| 2026-05-04 14:38 | 41.55769 | -8.68695 | 13004 ft | 345 kts | 10° |
| 2026-05-04 14:38 | 41.58154 | -8.68111 | 13783 ft | 350 kts | 10° |
| 2026-05-04 14:39 | 41.60565 | -8.67525 | 14583 ft | 355 kts | 10° |
| 2026-05-04 14:39 | 41.63007 | -8.66935 | 15396 ft | 358 kts | 10° |
| 2026-05-04 14:39 | 41.65476 | -8.66338 | 16230 ft | 361 kts | 10° |
| 2026-05-04 14:40 | 41.70503 | -8.65124 | 17701 ft | 371 kts | 10° |
| 2026-05-04 14:40 | 41.73060 | -8.64506 | 18479 ft | 374 kts | 10° |
| 2026-05-04 14:40 | 41.75599 | -8.63891 | 19213 ft | 377 kts | 10° |
| 2026-05-04 14:40 | 41.78200 | -8.63262 | 19899 ft | 382 kts | 10° |
| 2026-05-04 14:41 | 41.80833 | -8.62623 | 20550 ft | 387 kts | 10° |
| 2026-05-04 14:41 | 41.83504 | -8.61976 | 21190 ft | 391 kts | 10° |
| 2026-05-04 14:41 | 41.88855 | -8.60676 | 22805 ft | 388 kts | 10° |
| 2026-05-04 14:42 | 41.94151 | -8.59387 | 23913 ft | 385 kts | 10° |
| 2026-05-04 14:42 | 41.96807 | -8.58740 | 23987 ft | 390 kts | 10° |
| 2026-05-04 14:42 | 41.99471 | -8.58090 | 23997 ft | 388 kts | 10° |
| 2026-05-04 14:43 | 42.02119 | -8.57444 | 24003 ft | 386 kts | 10° |
| 2026-05-04 14:43 | 42.04760 | -8.56799 | 24010 ft | 385 kts | 10° |
| 2026-05-04 14:43 | 42.07398 | -8.56173 | 24006 ft | 385 kts | 8° |
| 2026-05-04 14:43 | 42.10050 | -8.55687 | 24001 ft | 384 kts | 6° |
| 2026-05-04 14:44 | 42.12708 | -8.55279 | 24004 ft | 384 kts | 6° |
| 2026-05-04 14:44 | 42.15366 | -8.54891 | 24000 ft | 384 kts | 6° |
| 2026-05-04 14:44 | 42.18028 | -8.54498 | 24005 ft | 384 kts | 6° |
| 2026-05-04 14:44 | 42.20686 | -8.54096 | 24003 ft | 385 kts | 6° |
| 2026-05-04 14:45 | 42.23348 | -8.53686 | 24000 ft | 385 kts | 6° |
| 2026-05-04 14:45 | 42.26014 | -8.53268 | 24001 ft | 386 kts | 6° |
| 2026-05-04 14:45 | 42.28649 | -8.52852 | 24005 ft | 386 kts | 6° |
| 2026-05-04 14:45 | 42.31324 | -8.52428 | 24006 ft | 386 kts | 6° |
| 2026-05-04 14:46 | 42.34001 | -8.52003 | 23999 ft | 387 kts | 6° |
| 2026-05-04 14:46 | 42.36680 | -8.51577 | 24004 ft | 387 kts | 6° |
| 2026-05-04 14:46 | 42.39361 | -8.51151 | 24004 ft | 388 kts | 6° |
| 2026-05-04 14:46 | 42.42041 | -8.50724 | 24002 ft | 388 kts | 6° |
| 2026-05-04 14:47 | 42.44727 | -8.50296 | 23997 ft | 388 kts | 6° |
| 2026-05-04 14:47 | 42.47377 | -8.49874 | 24000 ft | 388 kts | 6° |
| 2026-05-04 14:47 | 42.50029 | -8.49184 | 23991 ft | 388 kts | 18° |
| 2026-05-04 14:47 | 42.52510 | -8.47760 | 24011 ft | 388 kts | 28° |
| 2026-05-04 14:48 | 42.54737 | -8.45692 | 24001 ft | 388 kts | 39° |
| 2026-05-04 14:48 | 42.56789 | -8.43315 | 24004 ft | 388 kts | 41° |
| 2026-05-04 14:48 | 42.58812 | -8.40885 | 23995 ft | 389 kts | 41° |
| 2026-05-04 14:48 | 42.60831 | -8.38437 | 23995 ft | 389 kts | 41° |
| 2026-05-04 14:49 | 42.62854 | -8.35990 | 24000 ft | 389 kts | 41° |
| 2026-05-04 14:49 | 42.64880 | -8.33551 | 24005 ft | 389 kts | 41° |
| 2026-05-04 14:49 | 42.66914 | -8.31114 | 24003 ft | 390 kts | 41° |
| 2026-05-04 14:49 | 42.68950 | -8.28681 | 23998 ft | 390 kts | 41° |
| 2026-05-04 14:50 | 42.70987 | -8.26253 | 24003 ft | 389 kts | 41° |
| 2026-05-04 14:50 | 42.73025 | -8.23825 | 24000 ft | 389 kts | 41° |
| 2026-05-04 14:50 | 42.75061 | -8.21398 | 24002 ft | 389 kts | 41° |
| 2026-05-04 14:50 | 42.77100 | -8.18967 | 24001 ft | 389 kts | 41° |
| 2026-05-04 14:51 | 42.79106 | -8.16574 | 23997 ft | 389 kts | 41° |
| 2026-05-04 14:51 | 42.81140 | -8.14145 | 24003 ft | 388 kts | 41° |
| 2026-05-04 14:51 | 42.83172 | -8.11717 | 24001 ft | 388 kts | 41° |
| 2026-05-04 14:51 | 42.85197 | -8.09295 | 23999 ft | 388 kts | 41° |
| 2026-05-04 14:52 | 42.87224 | -8.06867 | 24001 ft | 387 kts | 41° |
| 2026-05-04 14:52 | 42.89250 | -8.04439 | 24002 ft | 387 kts | 41° |
| 2026-05-04 14:52 | 42.91273 | -8.02013 | 24002 ft | 387 kts | 41° |
| 2026-05-04 14:52 | 42.93297 | -7.99582 | 24003 ft | 388 kts | 41° |
| 2026-05-04 14:53 | 42.95319 | -7.97152 | 23999 ft | 388 kts | 41° |
| 2026-05-04 14:53 | 42.97345 | -7.94715 | 24001 ft | 388 kts | 41° |
| 2026-05-04 14:53 | 42.99374 | -7.92272 | 24001 ft | 389 kts | 41° |
| 2026-05-04 14:53 | 43.01403 | -7.89827 | 23999 ft | 389 kts | 41° |
| 2026-05-04 14:54 | 43.03434 | -7.87377 | 24005 ft | 389 kts | 41° |
| 2026-05-04 14:54 | 43.05465 | -7.84924 | 24000 ft | 390 kts | 41° |
| 2026-05-04 14:54 | 43.07471 | -7.82500 | 24000 ft | 390 kts | 41° |
| 2026-05-04 14:54 | 43.09501 | -7.80046 | 24002 ft | 389 kts | 41° |
| 2026-05-04 14:55 | 43.11532 | -7.77586 | 24002 ft | 389 kts | 41° |
| 2026-05-04 14:55 | 43.13561 | -7.75128 | 23999 ft | 389 kts | 41° |
| 2026-05-04 14:55 | 43.15586 | -7.72672 | 24004 ft | 389 kts | 41° |
| 2026-05-04 14:55 | 43.17610 | -7.70214 | 24000 ft | 389 kts | 41° |
| 2026-05-04 14:56 | 43.19635 | -7.67753 | 23999 ft | 389 kts | 41° |
| 2026-05-04 14:56 | 43.21661 | -7.65290 | 24001 ft | 388 kts | 41° |
| 2026-05-04 14:56 | 43.23685 | -7.62826 | 24001 ft | 388 kts | 41° |
| 2026-05-04 14:56 | 43.25705 | -7.60365 | 24001 ft | 388 kts | 41° |
| 2026-05-04 14:57 | 43.27722 | -7.57904 | 24003 ft | 388 kts | 41° |
| 2026-05-04 14:57 | 43.29739 | -7.55442 | 24000 ft | 388 kts | 41° |
| 2026-05-04 14:57 | 43.31754 | -7.52980 | 24001 ft | 388 kts | 41° |
| 2026-05-04 14:57 | 43.33740 | -7.50551 | 24001 ft | 388 kts | 41° |
| 2026-05-04 14:58 | 43.35754 | -7.48085 | 23999 ft | 388 kts | 41° |
| 2026-05-04 14:58 | 43.37769 | -7.45617 | 24005 ft | 388 kts | 41° |
| 2026-05-04 14:58 | 43.39784 | -7.43146 | 23998 ft | 388 kts | 41° |
| 2026-05-04 14:58 | 43.41800 | -7.40670 | 24001 ft | 388 kts | 41° |
| 2026-05-04 14:59 | 43.43817 | -7.38192 | 24005 ft | 388 kts | 41° |
| 2026-05-04 14:59 | 43.45832 | -7.35714 | 24002 ft | 388 kts | 41° |
| 2026-05-04 14:59 | 43.49848 | -7.30768 | 24000 ft | 387 kts | 41° |
| 2026-05-04 15:00 | 43.51854 | -7.28294 | 23998 ft | 386 kts | 41° |
| 2026-05-04 15:00 | 43.53860 | -7.25819 | 24000 ft | 386 kts | 41° |
| 2026-05-04 15:00 | 43.55858 | -7.23349 | 24003 ft | 385 kts | 41° |
| 2026-05-04 15:01 | 43.59821 | -7.18445 | 23999 ft | 385 kts | 41° |
| 2026-05-04 15:01 | 43.61815 | -7.15975 | 24001 ft | 385 kts | 41° |
| 2026-05-04 15:01 | 43.63805 | -7.13507 | 24002 ft | 385 kts | 41° |
| 2026-05-04 15:01 | 43.65799 | -7.11032 | 24001 ft | 385 kts | 41° |
| 2026-05-04 15:02 | 43.67789 | -7.08560 | 24001 ft | 385 kts | 41° |
| 2026-05-04 15:02 | 43.69781 | -7.06083 | 24001 ft | 385 kts | 41° |
| 2026-05-04 15:02 | 43.71770 | -7.03606 | 24001 ft | 385 kts | 41° |
| 2026-05-04 15:02 | 43.73764 | -7.01121 | 24001 ft | 385 kts | 41° |
| 2026-05-04 15:03 | 43.75757 | -6.98636 | 24001 ft | 385 kts | 42° |
| 2026-05-04 15:03 | 43.77723 | -6.96182 | 24001 ft | 385 kts | 42° |
| 2026-05-04 15:03 | 43.79716 | -6.93692 | 24001 ft | 386 kts | 42° |
| 2026-05-04 15:03 | 43.81711 | -6.91197 | 24001 ft | 386 kts | 42° |
| 2026-05-04 15:04 | 43.83702 | -6.88705 | 24001 ft | 386 kts | 42° |
| 2026-05-04 15:04 | 43.85692 | -6.86211 | 24001 ft | 386 kts | 42° |
| 2026-05-04 15:04 | 43.87682 | -6.83716 | 24001 ft | 386 kts | 42° |
| 2026-05-04 15:04 | 43.89670 | -6.81219 | 24001 ft | 386 kts | 42° |
| 2026-05-04 15:05 | 43.91661 | -6.78718 | 24001 ft | 386 kts | 42° |
| 2026-05-04 15:05 | 43.93653 | -6.76212 | 24001 ft | 386 kts | 42° |
| 2026-05-04 15:05 | 43.95614 | -6.73744 | 24001 ft | 386 kts | 42° |
| 2026-05-04 15:05 | 43.97600 | -6.71242 | 24001 ft | 386 kts | 42° |
| 2026-05-04 15:06 | 43.99585 | -6.68738 | 24001 ft | 385 kts | 42° |
| 2026-05-04 15:06 | 44.01572 | -6.66229 | 24001 ft | 385 kts | 42° |
| 2026-05-04 15:06 | 44.03558 | -6.63720 | 24001 ft | 385 kts | 42° |
| 2026-05-04 15:07 | 44.07527 | -6.58698 | 24001 ft | 385 kts | 42° |
| 2026-05-04 15:07 | 44.09505 | -6.56190 | 24001 ft | 385 kts | 42° |
| 2026-05-04 15:07 | 44.11488 | -6.53675 | 24001 ft | 385 kts | 42° |
| 2026-05-04 15:07 | 44.13466 | -6.51164 | 24001 ft | 385 kts | 42° |
| 2026-05-04 15:08 | 44.15445 | -6.48649 | 24001 ft | 385 kts | 42° |
| 2026-05-04 15:08 | 44.17425 | -6.46129 | 24001 ft | 385 kts | 42° |
| 2026-05-04 15:08 | 44.19408 | -6.43605 | 24001 ft | 385 kts | 42° |
| 2026-05-04 15:08 | 44.21387 | -6.41082 | 24001 ft | 385 kts | 42° |
| 2026-05-04 15:09 | 44.23340 | -6.38591 | 24001 ft | 385 kts | 42° |
| 2026-05-04 15:09 | 44.25321 | -6.36062 | 24001 ft | 385 kts | 42° |
| 2026-05-04 15:09 | 44.27299 | -6.33534 | 24001 ft | 385 kts | 42° |
| 2026-05-04 15:10 | 44.31246 | -6.28481 | 24001 ft | 385 kts | 42° |
| 2026-05-04 15:10 | 44.33227 | -6.25942 | 24001 ft | 385 kts | 42° |
| 2026-05-04 15:10 | 44.37173 | -6.20877 | 24001 ft | 385 kts | 42° |
| 2026-05-04 15:11 | 44.39145 | -6.18341 | 24001 ft | 385 kts | 42° |
| 2026-05-04 15:11 | 44.41117 | -6.15805 | 24001 ft | 385 kts | 42° |
| 2026-05-04 15:11 | 44.43066 | -6.13294 | 24001 ft | 385 kts | 42° |
| 2026-05-04 15:11 | 44.45036 | -6.10754 | 24001 ft | 385 kts | 42° |
| 2026-05-04 15:12 | 44.47006 | -6.08212 | 24001 ft | 385 kts | 42° |
| 2026-05-04 15:12 | 44.48975 | -6.05669 | 24001 ft | 385 kts | 42° |
| 2026-05-04 15:12 | 44.50282 | -6.03978 | 24001 ft | 385 kts | 42° |
| 2026-05-04 15:12 | 44.52252 | -6.01430 | 24001 ft | 385 kts | 42° |
| 2026-05-04 15:13 | 44.54219 | -5.98882 | 24001 ft | 385 kts | 43° |
| 2026-05-04 15:13 | 44.56188 | -5.96329 | 24001 ft | 385 kts | 43° |
| 2026-05-04 15:13 | 44.58154 | -5.93778 | 24001 ft | 385 kts | 43° |
| 2026-05-04 15:13 | 44.60757 | -5.90396 | 24001 ft | 385 kts | 43° |
| 2026-05-04 15:14 | 44.62084 | -5.88671 | 24001 ft | 385 kts | 43° |
| 2026-05-04 15:14 | 44.64048 | -5.86116 | 24001 ft | 385 kts | 43° |
| 2026-05-04 15:14 | 44.66014 | -5.83555 | 24001 ft | 385 kts | 43° |
| 2026-05-04 15:14 | 44.67957 | -5.80961 | 24001 ft | 385 kts | 44° |
| 2026-05-04 15:15 | 44.69855 | -5.78371 | 24001 ft | 385 kts | 44° |
| 2026-05-04 15:15 | 44.71769 | -5.75739 | 24001 ft | 385 kts | 44° |
| 2026-05-04 15:15 | 44.73686 | -5.73098 | 24001 ft | 385 kts | 44° |
| 2026-05-04 15:16 | 44.77514 | -5.67824 | 24001 ft | 385 kts | 44° |
| 2026-05-04 15:16 | 44.79429 | -5.65189 | 24001 ft | 385 kts | 44° |
| 2026-05-04 15:16 | 44.83263 | -5.59911 | 24001 ft | 385 kts | 44° |
| 2026-05-04 15:17 | 44.85177 | -5.57274 | 24001 ft | 385 kts | 44° |
| 2026-05-04 15:17 | 44.88979 | -5.52029 | 24001 ft | 385 kts | 44° |
| 2026-05-04 15:17 | 44.90891 | -5.49387 | 24001 ft | 385 kts | 44° |
| 2026-05-04 15:18 | 44.92803 | -5.46743 | 24001 ft | 385 kts | 44° |
| 2026-05-04 15:18 | 44.94714 | -5.44098 | 24001 ft | 385 kts | 44° |
| 2026-05-04 15:18 | 44.96625 | -5.41450 | 24001 ft | 385 kts | 44° |
| 2026-05-04 15:19 | 45.00442 | -5.36154 | 24001 ft | 385 kts | 44° |
| 2026-05-04 15:19 | 45.02353 | -5.33499 | 24001 ft | 385 kts | 44° |
| 2026-05-04 15:19 | 45.06170 | -5.28186 | 24001 ft | 385 kts | 44° |
| 2026-05-04 15:20 | 45.08076 | -5.25529 | 24001 ft | 385 kts | 44° |
| 2026-05-04 15:20 | 45.09982 | -5.22871 | 24001 ft | 385 kts | 44° |
| 2026-05-04 15:20 | 45.11891 | -5.20204 | 24001 ft | 385 kts | 44° |
| 2026-05-04 15:20 | 45.13798 | -5.17539 | 24001 ft | 385 kts | 44° |
| 2026-05-04 15:21 | 45.15682 | -5.14902 | 24001 ft | 385 kts | 44° |
| 2026-05-04 15:21 | 45.17585 | -5.12236 | 24001 ft | 385 kts | 44° |
| 2026-05-04 15:21 | 45.21391 | -5.06897 | 24001 ft | 385 kts | 44° |
| 2026-05-04 15:22 | 45.23294 | -5.04224 | 24001 ft | 385 kts | 44° |
| 2026-05-04 15:22 | 45.25192 | -5.01554 | 24001 ft | 385 kts | 44° |
| 2026-05-04 15:22 | 45.28993 | -4.96202 | 24001 ft | 385 kts | 44° |
| 2026-05-04 15:23 | 45.30893 | -4.93521 | 24001 ft | 385 kts | 44° |
| 2026-05-04 15:23 | 45.32793 | -4.90839 | 24001 ft | 385 kts | 44° |
| 2026-05-04 15:23 | 45.34666 | -4.88191 | 24001 ft | 385 kts | 45° |
| 2026-05-04 15:23 | 45.36563 | -4.85508 | 24001 ft | 385 kts | 45° |
| 2026-05-04 15:24 | 45.40357 | -4.80132 | 24001 ft | 385 kts | 45° |
| 2026-05-04 15:24 | 45.44147 | -4.74752 | 24001 ft | 384 kts | 45° |
| 2026-05-04 15:25 | 45.46039 | -4.72061 | 24001 ft | 384 kts | 45° |
| 2026-05-04 15:25 | 45.47933 | -4.69365 | 24001 ft | 384 kts | 45° |
| 2026-05-04 15:25 | 45.49829 | -4.66665 | 24001 ft | 384 kts | 45° |
| 2026-05-04 15:26 | 45.53607 | -4.61273 | 24001 ft | 384 kts | 45° |
| 2026-05-04 15:26 | 45.55498 | -4.58571 | 24001 ft | 384 kts | 45° |
| 2026-05-04 15:26 | 45.59275 | -4.53166 | 24001 ft | 384 kts | 45° |
| 2026-05-04 15:27 | 45.61137 | -4.50497 | 24001 ft | 384 kts | 45° |
| 2026-05-04 15:27 | 45.64915 | -4.45073 | 24001 ft | 384 kts | 45° |
| 2026-05-04 15:28 | 45.68684 | -4.39651 | 24001 ft | 384 kts | 45° |
| 2026-05-04 15:28 | 45.70570 | -4.36934 | 24001 ft | 384 kts | 45° |
| 2026-05-04 15:28 | 45.74337 | -4.31499 | 24001 ft | 384 kts | 45° |
| 2026-05-04 15:29 | 45.76221 | -4.28777 | 24001 ft | 384 kts | 45° |
| 2026-05-04 15:30 | 45.83717 | -4.17918 | 24001 ft | 384 kts | 45° |
| 2026-05-04 15:30 | 45.89352 | -4.09724 | 24001 ft | 384 kts | 45° |
| 2026-05-04 15:31 | 45.93101 | -4.04260 | 24001 ft | 384 kts | 45° |
| 2026-05-04 15:31 | 45.94975 | -4.01524 | 24001 ft | 384 kts | 45° |
| 2026-05-04 15:32 | 46.00597 | -3.93299 | 24001 ft | 384 kts | 45° |
| 2026-05-04 15:32 | 46.04338 | -3.87814 | 24001 ft | 384 kts | 45° |
| 2026-05-04 15:33 | 46.08079 | -3.82315 | 24001 ft | 384 kts | 45° |
| 2026-05-04 15:34 | 46.13662 | -3.74089 | 24001 ft | 384 kts | 45° |
| 2026-05-04 15:34 | 46.15554 | -3.71296 | 24001 ft | 384 kts | 45° |
| 2026-05-04 15:34 | 46.19264 | -3.65809 | 24001 ft | 384 kts | 45° |
| 2026-05-04 15:35 | 46.22991 | -3.60286 | 24001 ft | 384 kts | 45° |
| 2026-05-04 15:35 | 46.24857 | -3.57518 | 24001 ft | 384 kts | 45° |
| 2026-05-04 15:35 | 46.26718 | -3.54751 | 24001 ft | 384 kts | 45° |
| 2026-05-04 15:36 | 46.30442 | -3.49210 | 24001 ft | 384 kts | 45° |
| 2026-05-04 15:36 | 46.32303 | -3.46438 | 24001 ft | 384 kts | 45° |
| 2026-05-04 15:36 | 46.34164 | -3.43661 | 24001 ft | 384 kts | 45° |
| 2026-05-04 15:37 | 46.36022 | -3.40886 | 24001 ft | 384 kts | 46° |
| 2026-05-04 15:37 | 46.37857 | -3.38142 | 24001 ft | 384 kts | 46° |
| 2026-05-04 15:37 | 46.39716 | -3.35360 | 24001 ft | 384 kts | 46° |
| 2026-05-04 15:37 | 46.41576 | -3.32573 | 24001 ft | 384 kts | 46° |
| 2026-05-04 15:38 | 46.43436 | -3.29784 | 24001 ft | 384 kts | 46° |
| 2026-05-04 15:38 | 46.45293 | -3.26997 | 24001 ft | 384 kts | 46° |
| 2026-05-04 15:38 | 46.47149 | -3.24207 | 24001 ft | 384 kts | 46° |
| 2026-05-04 15:38 | 46.49002 | -3.21419 | 24001 ft | 384 kts | 46° |
| 2026-05-04 15:39 | 46.50856 | -3.18626 | 24001 ft | 384 kts | 46° |
| 2026-05-04 15:39 | 46.52706 | -3.15838 | 24001 ft | 384 kts | 46° |
| 2026-05-04 15:39 | 46.56368 | -3.10267 | 23999 ft | 384 kts | 49° |
| 2026-05-04 15:40 | 46.57950 | -3.07142 | 23999 ft | 384 kts | 58° |
| 2026-05-04 15:40 | 46.59314 | -3.03805 | 24002 ft | 384 kts | 60° |
| 2026-05-04 15:40 | 46.60640 | -3.00438 | 23997 ft | 384 kts | 60° |
| 2026-05-04 15:40 | 46.61962 | -2.97059 | 24000 ft | 384 kts | 60° |
| 2026-05-04 15:41 | 46.63289 | -2.93681 | 24002 ft | 384 kts | 60° |
| 2026-05-04 15:41 | 46.64621 | -2.90310 | 24001 ft | 384 kts | 60° |
| 2026-05-04 15:41 | 46.65957 | -2.86945 | 24001 ft | 384 kts | 60° |
| 2026-05-04 15:41 | 46.67297 | -2.83580 | 24001 ft | 384 kts | 59° |
| 2026-05-04 15:42 | 46.68637 | -2.80215 | 24001 ft | 384 kts | 59° |
| 2026-05-04 15:42 | 46.69977 | -2.76850 | 24001 ft | 384 kts | 59° |
| 2026-05-04 15:42 | 46.71317 | -2.73483 | 24001 ft | 384 kts | 60° |
| 2026-05-04 15:42 | 46.72656 | -2.70115 | 24001 ft | 384 kts | 60° |
| 2026-05-04 15:43 | 46.73993 | -2.66746 | 24001 ft | 384 kts | 60° |
| 2026-05-04 15:43 | 46.75329 | -2.63376 | 24001 ft | 384 kts | 60° |
| 2026-05-04 15:43 | 46.76665 | -2.60000 | 24001 ft | 384 kts | 60° |
| 2026-05-04 15:43 | 46.77998 | -2.56631 | 24001 ft | 384 kts | 60° |
| 2026-05-04 15:44 | 46.79316 | -2.53291 | 24001 ft | 384 kts | 60° |
| 2026-05-04 15:44 | 46.80646 | -2.49919 | 24001 ft | 384 kts | 60° |
| 2026-05-04 15:44 | 46.81978 | -2.46540 | 24001 ft | 384 kts | 60° |
| 2026-05-04 15:44 | 46.83309 | -2.43158 | 24001 ft | 384 kts | 60° |
| 2026-05-04 15:45 | 46.84638 | -2.39777 | 24001 ft | 384 kts | 60° |
| 2026-05-04 15:45 | 46.86035 | -2.36459 | 23994 ft | 384 kts | 54° |
| 2026-05-04 15:45 | 46.87760 | -2.33499 | 24007 ft | 383 kts | 46° |
| 2026-05-04 15:45 | 46.89629 | -2.30712 | 24000 ft | 383 kts | 45° |
| 2026-05-04 15:46 | 46.91520 | -2.27958 | 23998 ft | 383 kts | 44° |
| 2026-05-04 15:46 | 46.93413 | -2.25209 | 24001 ft | 383 kts | 44° |
| 2026-05-04 15:46 | 46.95277 | -2.22490 | 24002 ft | 383 kts | 45° |
| 2026-05-04 15:46 | 46.97159 | -2.19728 | 24003 ft | 383 kts | 45° |
| 2026-05-04 15:47 | 46.99038 | -2.16955 | 23999 ft | 384 kts | 45° |
| 2026-05-04 15:47 | 47.00914 | -2.14173 | 24001 ft | 384 kts | 45° |
| 2026-05-04 15:47 | 47.02786 | -2.11388 | 24002 ft | 383 kts | 45° |
| 2026-05-04 15:47 | 47.04659 | -2.08597 | 24001 ft | 383 kts | 45° |
| 2026-05-04 15:48 | 47.06528 | -2.05806 | 24001 ft | 383 kts | 45° |
| 2026-05-04 15:48 | 47.08395 | -2.03015 | 24003 ft | 383 kts | 45° |
| 2026-05-04 15:48 | 47.12129 | -1.97422 | 24001 ft | 384 kts | 45° |
| 2026-05-04 15:49 | 47.13996 | -1.94621 | 24000 ft | 384 kts | 45° |
| 2026-05-04 15:49 | 47.15861 | -1.91821 | 24003 ft | 383 kts | 45° |
| 2026-05-04 15:49 | 47.17728 | -1.89015 | 24002 ft | 384 kts | 45° |
| 2026-05-04 15:49 | 47.19590 | -1.86211 | 24002 ft | 383 kts | 45° |
| 2026-05-04 15:50 | 47.21454 | -1.83404 | 24002 ft | 383 kts | 45° |
| 2026-05-04 15:50 | 47.23317 | -1.80594 | 24000 ft | 383 kts | 45° |
| 2026-05-04 15:50 | 47.25185 | -1.77774 | 24001 ft | 383 kts | 45° |
| 2026-05-04 15:50 | 47.27045 | -1.74963 | 24002 ft | 383 kts | 45° |
| 2026-05-04 15:51 | 47.28903 | -1.72151 | 24001 ft | 383 kts | 45° |
| 2026-05-04 15:51 | 47.30763 | -1.69334 | 24001 ft | 383 kts | 45° |
| 2026-05-04 15:51 | 47.32624 | -1.66512 | 24002 ft | 383 kts | 45° |
| 2026-05-04 15:51 | 47.34479 | -1.63697 | 24000 ft | 383 kts | 45° |
| 2026-05-04 15:52 | 47.36337 | -1.60874 | 24002 ft | 383 kts | 45° |
| 2026-05-04 15:52 | 47.38169 | -1.58087 | 24002 ft | 383 kts | 45° |
| 2026-05-04 15:52 | 47.40027 | -1.55259 | 24001 ft | 383 kts | 46° |
| 2026-05-04 15:52 | 47.41881 | -1.52432 | 24002 ft | 383 kts | 46° |
| 2026-05-04 15:53 | 47.43739 | -1.49596 | 24001 ft | 383 kts | 46° |
| 2026-05-04 15:53 | 47.45593 | -1.46765 | 24000 ft | 383 kts | 46° |
| 2026-05-04 15:53 | 47.47449 | -1.43925 | 24001 ft | 383 kts | 46° |
| 2026-05-04 15:53 | 47.49300 | -1.41091 | 24003 ft | 383 kts | 46° |
| 2026-05-04 15:54 | 47.51153 | -1.38252 | 24001 ft | 383 kts | 46° |
| 2026-05-04 15:54 | 47.53001 | -1.35416 | 24001 ft | 383 kts | 46° |
| 2026-05-04 15:54 | 47.54856 | -1.32567 | 24001 ft | 383 kts | 46° |
| 2026-05-04 15:54 | 47.56704 | -1.29726 | 24002 ft | 383 kts | 46° |
| 2026-05-04 15:55 | 47.58555 | -1.26877 | 24002 ft | 383 kts | 46° |
| 2026-05-04 15:55 | 47.60376 | -1.24070 | 24001 ft | 383 kts | 46° |
| 2026-05-04 15:55 | 47.62224 | -1.21219 | 24000 ft | 383 kts | 46° |
| 2026-05-04 15:55 | 47.64071 | -1.18367 | 24001 ft | 383 kts | 46° |
| 2026-05-04 15:56 | 47.65919 | -1.15510 | 24001 ft | 383 kts | 46° |
| 2026-05-04 15:56 | 47.67763 | -1.12655 | 24001 ft | 383 kts | 46° |
| 2026-05-04 15:56 | 47.69607 | -1.09798 | 24001 ft | 383 kts | 46° |
| 2026-05-04 15:56 | 47.71452 | -1.06936 | 24001 ft | 383 kts | 46° |
| 2026-05-04 15:57 | 47.73295 | -1.04076 | 24001 ft | 383 kts | 46° |
| 2026-05-04 15:57 | 47.75140 | -1.01207 | 24002 ft | 383 kts | 46° |
| 2026-05-04 15:57 | 47.76979 | -0.98345 | 24002 ft | 383 kts | 46° |
| 2026-05-04 15:57 | 47.78817 | -0.95481 | 24002 ft | 383 kts | 46° |
| 2026-05-04 15:58 | 47.80658 | -0.92610 | 24003 ft | 383 kts | 46° |
| 2026-05-04 15:58 | 47.82499 | -0.89737 | 23999 ft | 383 kts | 46° |
| 2026-05-04 15:58 | 47.84312 | -0.86901 | 24001 ft | 383 kts | 46° |
| 2026-05-04 15:58 | 47.86151 | -0.84025 | 24003 ft | 383 kts | 46° |
| 2026-05-04 15:59 | 47.87986 | -0.81149 | 24004 ft | 383 kts | 46° |
| 2026-05-04 15:59 | 47.89822 | -0.78270 | 24003 ft | 383 kts | 46° |
| 2026-05-04 15:59 | 47.91657 | -0.75390 | 24000 ft | 383 kts | 46° |
| 2026-05-04 15:59 | 47.93492 | -0.72505 | 23999 ft | 383 kts | 46° |
| 2026-05-04 16:00 | 47.95327 | -0.69618 | 24001 ft | 383 kts | 46° |
| 2026-05-04 16:00 | 47.97162 | -0.66728 | 24003 ft | 383 kts | 46° |
| 2026-05-04 16:00 | 47.98994 | -0.63839 | 24001 ft | 383 kts | 46° |
| 2026-05-04 16:00 | 48.00825 | -0.60948 | 24000 ft | 383 kts | 46° |
| 2026-05-04 16:01 | 48.02655 | -0.58056 | 24002 ft | 383 kts | 46° |
| 2026-05-04 16:01 | 48.04485 | -0.55161 | 24002 ft | 383 kts | 46° |
| 2026-05-04 16:01 | 48.06318 | -0.52258 | 23999 ft | 383 kts | 46° |
| 2026-05-04 16:01 | 48.08124 | -0.49394 | 24002 ft | 383 kts | 46° |
| 2026-05-04 16:02 | 48.09952 | -0.46492 | 23999 ft | 383 kts | 46° |
| 2026-05-04 16:02 | 48.11188 | -0.44529 | 24000 ft | 383 kts | 46° |
| 2026-05-04 16:02 | 48.15431 | -0.37775 | 23999 ft | 383 kts | 46° |
| 2026-05-04 16:03 | 48.16641 | -0.35847 | 24000 ft | 383 kts | 46° |
| 2026-05-04 16:03 | 48.18465 | -0.32935 | 24000 ft | 383 kts | 46° |
| 2026-05-04 16:03 | 48.20290 | -0.30021 | 24001 ft | 383 kts | 46° |
| 2026-05-04 16:03 | 48.22116 | -0.27101 | 24003 ft | 384 kts | 46° |
| 2026-05-04 16:04 | 48.23939 | -0.24181 | 24001 ft | 384 kts | 46° |
| 2026-05-04 16:04 | 48.27588 | -0.18329 | 24005 ft | 384 kts | 46° |
| 2026-05-04 16:04 | 48.29413 | -0.15398 | 24001 ft | 384 kts | 47° |
| 2026-05-04 16:05 | 48.31235 | -0.12467 | 24001 ft | 384 kts | 47° |
| 2026-05-04 16:05 | 48.33061 | -0.09527 | 24001 ft | 384 kts | 47° |
| 2026-05-04 16:05 | 48.36697 | -0.03656 | 24001 ft | 383 kts | 47° |
| 2026-05-04 16:06 | 48.38471 | -0.00668 | 24000 ft | 383 kts | 49° |
| 2026-05-04 16:06 | 48.43700 | 0.08436 | 24002 ft | 383 kts | 49° |
| 2026-05-04 16:07 | 48.45422 | 0.11443 | 24001 ft | 383 kts | 49° |
| 2026-05-04 16:07 | 48.50653 | 0.20560 | 24002 ft | 383 kts | 49° |
| 2026-05-04 16:08 | 48.52392 | 0.23593 | 24000 ft | 383 kts | 49° |
| 2026-05-04 16:08 | 48.57623 | 0.32727 | 24002 ft | 383 kts | 49° |
| 2026-05-04 16:09 | 48.61108 | 0.38828 | 24002 ft | 383 kts | 49° |
| 2026-05-04 16:09 | 48.64564 | 0.44894 | 24001 ft | 383 kts | 49° |
| 2026-05-04 16:10 | 48.68041 | 0.51010 | 23999 ft | 384 kts | 49° |
| 2026-05-04 16:11 | 48.73258 | 0.60216 | 24001 ft | 384 kts | 49° |
| 2026-05-04 16:11 | 48.74994 | 0.63285 | 24001 ft | 384 kts | 49° |
| 2026-05-04 16:12 | 48.80202 | 0.72515 | 24002 ft | 384 kts | 49° |
| 2026-05-04 16:12 | 48.85379 | 0.81723 | 24000 ft | 383 kts | 49° |
| 2026-05-04 16:13 | 48.88837 | 0.87892 | 24001 ft | 383 kts | 49° |
| 2026-05-04 16:13 | 48.92287 | 0.94062 | 24002 ft | 383 kts | 49° |
| 2026-05-04 16:14 | 48.95732 | 1.00235 | 24000 ft | 383 kts | 49° |
| 2026-05-04 16:14 | 48.99199 | 1.06464 | 23993 ft | 377 kts | 50° |
| 2026-05-04 16:15 | 49.04295 | 1.15644 | 24006 ft | 384 kts | 50° |
| 2026-05-04 16:16 | 49.07731 | 1.21852 | 23993 ft | 381 kts | 50° |
| 2026-05-04 16:16 | 49.12844 | 1.31119 | 24002 ft | 379 kts | 50° |
| 2026-05-04 16:17 | 49.16223 | 1.37261 | 24004 ft | 380 kts | 50° |
| 2026-05-04 16:18 | 49.21340 | 1.46590 | 24002 ft | 382 kts | 50° |
| 2026-05-04 16:18 | 49.23047 | 1.49707 | 24004 ft | 382 kts | 50° |
| 2026-05-04 16:19 | 49.28363 | 1.58814 | 24005 ft | 383 kts | 44° |
| 2026-05-04 16:19 | 49.32260 | 1.64396 | 24000 ft | 383 kts | 43° |
| 2026-05-04 16:20 | 49.38068 | 1.72761 | 24002 ft | 383 kts | 43° |
| 2026-05-04 16:20 | 49.41921 | 1.78399 | 23999 ft | 383 kts | 43° |
| 2026-05-04 16:21 | 49.47692 | 1.86883 | 24000 ft | 382 kts | 43° |
| 2026-05-04 16:22 | 49.51531 | 1.92540 | 24001 ft | 382 kts | 44° |
| 2026-05-04 16:22 | 49.57285 | 2.01040 | 24001 ft | 382 kts | 44° |
| 2026-05-04 16:23 | 49.63035 | 2.09561 | 24001 ft | 382 kts | 44° |
| 2026-05-04 16:24 | 49.70695 | 2.20961 | 24002 ft | 382 kts | 44° |
| 2026-05-04 16:25 | 49.74494 | 2.26635 | 24001 ft | 382 kts | 44° |
| 2026-05-04 16:26 | 49.82130 | 2.38079 | 24001 ft | 382 kts | 44° |
| 2026-05-04 16:26 | 49.87842 | 2.46675 | 24002 ft | 381 kts | 44° |
| 2026-05-04 16:27 | 49.91643 | 2.52410 | 24001 ft | 381 kts | 44° |
| 2026-05-04 16:28 | 49.97344 | 2.61043 | 24003 ft | 381 kts | 44° |
| 2026-05-04 16:28 | 50.03002 | 2.69676 | 24003 ft | 381 kts | 44° |
| 2026-05-04 16:29 | 50.10580 | 2.81285 | 24002 ft | 382 kts | 44° |
| 2026-05-04 16:30 | 50.16253 | 2.90009 | 24002 ft | 382 kts | 44° |
| 2026-05-04 16:31 | 50.20009 | 2.95804 | 24003 ft | 382 kts | 44° |
| 2026-05-04 16:31 | 50.25671 | 3.04563 | 24000 ft | 382 kts | 44° |
| 2026-05-04 16:32 | 50.31324 | 3.13340 | 24001 ft | 381 kts | 45° |
| 2026-05-04 16:33 | 50.35084 | 3.19194 | 24001 ft | 381 kts | 45° |
| 2026-05-04 16:33 | 50.38843 | 3.25058 | 24000 ft | 381 kts | 44° |
| 2026-05-04 16:34 | 50.43124 | 3.29787 | 24008 ft | 380 kts | 26° |
| 2026-05-04 16:34 | 50.45504 | 3.31592 | 24001 ft | 380 kts | 25° |
| 2026-05-04 16:35 | 50.52643 | 3.37040 | 24000 ft | 380 kts | 24° |
| 2026-05-04 16:35 | 50.59925 | 3.42028 | 24002 ft | 380 kts | 23° |
| 2026-05-04 16:36 | 50.62359 | 3.43676 | 24000 ft | 381 kts | 23° |
| 2026-05-04 16:36 | 50.67226 | 3.47005 | 24000 ft | 381 kts | 23° |
| 2026-05-04 16:37 | 50.72051 | 3.50332 | 24004 ft | 381 kts | 23° |
| 2026-05-04 16:37 | 50.74476 | 3.52009 | 24000 ft | 381 kts | 23° |
| 2026-05-04 16:37 | 50.79334 | 3.55375 | 24003 ft | 381 kts | 23° |
| 2026-05-04 16:38 | 50.84184 | 3.58743 | 23999 ft | 380 kts | 23° |
| 2026-05-04 16:39 | 50.91542 | 3.63433 | 23998 ft | 380 kts | 13° |
| 2026-05-04 16:39 | 50.96755 | 3.64220 | 24004 ft | 379 kts | 1° |
| 2026-05-04 16:40 | 51.02026 | 3.64461 | 24000 ft | 379 kts | 1° |